createdAt,value
2023-03-11T07:54:32.869Z,962.40
2023-03-11T07:55:32.245Z,962.42
2023-03-11T07:56:32.207Z,962.38
2023-03-11T07:57:32.240Z,962.41
2023-03-11T07:58:32.228Z,962.44
2023-03-11T07:59:32.996Z,962.47
2023-03-11T08:00:32.194Z,962.40
2023-03-11T08:01:32.247Z,962.44
2023-03-11T08:02:32.239Z,962.49
2023-03-11T08:03:32.204Z,962.48
2023-03-11T08:04:32.125Z,962.49
2023-03-11T08:05:32.092Z,962.50
2023-03-11T08:06:32.036Z,962.47
2023-03-11T08:07:32.162Z,962.49
2023-03-11T08:08:32.220Z,962.56
2023-03-11T08:09:32.100Z,962.56
2023-03-11T08:10:32.075Z,962.55
2023-03-11T08:11:32.182Z,962.53
2023-03-11T08:12:32.071Z,962.56
2023-03-11T08:13:32.213Z,962.54
2023-03-11T08:14:32.155Z,962.54
2023-03-11T08:15:32.233Z,962.57
2023-03-11T08:16:32.228Z,962.57
2023-03-11T08:17:32.064Z,962.52
2023-03-11T08:18:32.112Z,962.55
2023-03-11T08:19:32.600Z,962.63
2023-03-11T08:20:31.988Z,962.63
2023-03-11T08:21:32.431Z,962.66
2023-03-11T08:22:32.140Z,962.63
2023-03-11T08:23:31.983Z,962.62
2023-03-11T08:24:32.023Z,962.64
2023-03-11T08:25:32.929Z,962.59
2023-03-11T08:26:32.057Z,962.62
2023-03-11T08:27:32.126Z,962.64
2023-03-11T08:28:32.035Z,962.63
2023-03-11T08:29:32.133Z,962.68
2023-03-11T08:30:31.912Z,962.70
2023-03-11T08:31:31.985Z,962.74
2023-03-11T08:32:31.910Z,962.74
2023-03-11T08:33:31.856Z,962.75
2023-03-11T08:34:31.987Z,962.73
2023-03-11T08:35:32.206Z,962.74
2023-03-11T08:36:32.027Z,962.77
2023-03-11T08:37:31.898Z,962.78
2023-03-11T08:38:31.956Z,962.79
2023-03-11T08:39:31.921Z,962.80
2023-03-11T08:40:32.757Z,962.79
2023-03-11T08:41:31.853Z,962.81
2023-03-11T08:42:31.770Z,962.79
2023-03-11T08:43:31.793Z,962.79
2023-03-11T08:44:31.900Z,962.85
2023-03-11T08:45:31.864Z,962.87
2023-03-11T08:46:31.972Z,962.89
2023-03-11T08:47:31.872Z,962.89
2023-03-11T08:48:31.981Z,962.90
2023-03-11T08:49:32.532Z,962.87
2023-03-11T08:50:34.920Z,962.93
2023-03-11T08:51:31.812Z,962.91
2023-03-11T08:52:31.609Z,962.91
2023-03-11T08:53:31.706Z,962.91
2023-03-11T08:54:31.699Z,962.89
2023-03-11T08:55:31.705Z,962.89
2023-03-11T08:56:31.713Z,962.93
2023-03-11T08:57:33.612Z,962.92
2023-03-11T08:58:31.680Z,962.91
2023-03-11T08:59:31.653Z,962.92
2023-03-11T09:00:31.613Z,962.90
2023-03-11T09:01:31.583Z,962.92
2023-03-11T09:02:31.578Z,962.92
2023-03-11T09:03:31.798Z,962.92
2023-03-11T09:04:31.611Z,962.94
2023-03-11T09:05:31.618Z,962.90
2023-03-11T09:06:31.585Z,962.87
2023-03-11T09:07:31.605Z,962.86
2023-03-11T09:08:31.585Z,962.84
2023-03-11T09:09:31.537Z,962.83
2023-03-11T09:10:32.606Z,962.84
2023-03-11T09:11:31.651Z,962.84
2023-03-11T09:12:31.661Z,962.83
2023-03-11T09:13:31.597Z,962.88
2023-03-11T09:14:32.509Z,962.83
2023-03-11T09:15:31.575Z,962.86
2023-03-11T09:16:31.604Z,962.87
2023-03-11T09:17:31.767Z,962.94
2023-03-11T09:18:31.739Z,962.96
2023-03-11T09:19:31.524Z,962.96
2023-03-11T09:20:31.493Z,962.99
2023-03-11T09:21:31.539Z,963.00
2023-03-11T09:22:31.360Z,963.03
2023-03-11T09:23:31.443Z,963.08
2023-03-11T09:24:31.807Z,963.06
2023-03-11T09:25:31.410Z,963.04
2023-03-11T09:26:31.292Z,963.03
2023-03-11T09:27:31.378Z,963.07
2023-03-11T09:28:31.979Z,963.05
2023-03-11T09:29:31.369Z,963.10
2023-03-11T09:30:31.328Z,963.12
2023-03-11T09:31:31.381Z,963.10
2023-03-11T09:32:31.349Z,963.10
2023-03-11T09:33:31.337Z,963.15
2023-03-11T09:34:31.337Z,963.17
2023-03-11T09:35:31.290Z,963.15
2023-03-11T09:36:31.267Z,963.19
2023-03-11T09:37:31.342Z,963.20
2023-03-11T09:38:31.349Z,963.16
2023-03-11T09:39:31.227Z,963.18
2023-03-11T09:40:31.294Z,963.17
2023-03-11T09:41:31.169Z,963.16
2023-03-11T09:42:31.328Z,963.14
2023-03-11T09:43:31.145Z,963.16
2023-03-11T09:44:31.207Z,963.12
2023-03-11T09:45:31.292Z,963.10
2023-03-11T09:46:31.313Z,963.07
2023-03-11T09:47:31.054Z,963.09
2023-03-11T09:48:31.245Z,963.11
2023-03-11T09:49:31.275Z,963.06
2023-03-11T09:50:31.354Z,963.13
2023-03-11T09:51:31.212Z,963.13
2023-03-11T09:52:30.982Z,963.09
2023-03-11T09:53:31.336Z,963.14
2023-03-11T09:54:31.290Z,963.13
2023-03-11T09:55:31.203Z,963.15
2023-03-11T09:56:31.216Z,963.17
2023-03-11T09:57:31.010Z,963.18
2023-03-11T09:58:31.119Z,963.17
2023-03-11T09:59:30.998Z,963.17
2023-03-11T10:00:31.452Z,963.14
2023-03-11T10:01:31.090Z,963.14
2023-03-11T10:02:31.249Z,963.12
2023-03-11T10:03:31.060Z,963.14
2023-03-11T10:04:31.130Z,963.10
2023-03-11T10:05:31.224Z,963.11
2023-03-11T10:06:31.395Z,963.10
2023-03-11T10:07:32.893Z,963.13
2023-03-11T10:08:31.054Z,963.11
2023-03-11T10:09:30.990Z,963.16
2023-03-11T10:10:31.303Z,963.17
2023-03-11T10:11:30.951Z,963.14
2023-03-11T10:12:31.865Z,963.16
2023-03-11T10:13:30.921Z,963.09
2023-03-11T10:14:31.075Z,963.11
2023-03-11T10:15:30.921Z,963.17
2023-03-11T10:16:30.878Z,963.17
2023-03-11T10:17:31.141Z,963.16
2023-03-11T10:18:30.895Z,963.17
2023-03-11T10:19:30.782Z,963.10
2023-03-11T10:20:30.920Z,963.14
2023-03-11T10:21:30.911Z,963.13
2023-03-11T10:22:31.083Z,963.16
2023-03-11T10:23:30.964Z,963.13
2023-03-11T10:24:30.913Z,963.09
2023-03-11T10:25:30.752Z,963.12
2023-03-11T10:26:30.742Z,963.10
2023-03-11T10:27:31.338Z,963.11
2023-03-11T10:28:30.890Z,963.12
2023-03-11T10:29:30.779Z,963.12
2023-03-11T10:30:31.050Z,963.15
2023-03-11T10:31:30.908Z,963.13
2023-03-11T10:32:31.358Z,963.19
2023-03-11T10:33:30.776Z,963.25
2023-03-11T10:34:30.843Z,963.21
2023-03-11T10:35:30.788Z,963.23
2023-03-11T10:36:30.604Z,963.23
2023-03-11T10:37:46.227Z,963.24
2023-03-11T10:38:30.637Z,963.18
2023-03-11T10:39:30.874Z,963.17
2023-03-11T10:40:30.629Z,963.13
2023-03-11T10:41:30.712Z,963.15
2023-03-11T10:42:30.902Z,963.13
2023-03-11T10:43:30.862Z,963.13
2023-03-11T10:44:30.629Z,963.09
2023-03-11T10:45:30.768Z,963.07
2023-03-11T10:46:30.584Z,963.06
2023-03-11T10:47:30.678Z,963.00
2023-03-11T10:48:30.549Z,962.98
2023-03-11T10:49:30.722Z,962.94
2023-03-11T10:50:30.537Z,962.97
2023-03-11T10:51:30.444Z,962.97
2023-03-11T10:52:30.503Z,963.02
2023-03-11T10:53:30.459Z,963.02
2023-03-11T10:54:30.493Z,963.05
2023-03-11T10:55:30.407Z,963.04
2023-03-11T10:56:30.588Z,963.04
2023-03-11T10:57:30.399Z,963.03
2023-03-11T10:58:30.459Z,963.02
2023-03-11T10:59:30.467Z,963.03
2023-03-11T11:00:30.390Z,963.02
2023-03-11T11:01:30.555Z,963.12
2023-03-11T11:02:30.425Z,963.07
2023-03-11T11:03:31.133Z,963.10
2023-03-11T11:04:31.662Z,963.11
2023-03-11T11:05:30.719Z,963.10
2023-03-11T11:06:30.395Z,963.05
2023-03-11T11:07:30.414Z,963.09
2023-03-11T11:08:30.386Z,963.10
2023-03-11T11:09:30.507Z,963.10
2023-03-11T11:10:30.629Z,963.10
2023-03-11T11:11:30.429Z,963.15
2023-03-11T11:12:30.361Z,963.16
2023-03-11T11:13:30.364Z,963.13
2023-03-11T11:14:30.404Z,963.15
2023-03-11T11:15:30.319Z,963.22
2023-03-11T11:16:30.351Z,963.16
2023-03-11T11:17:30.306Z,963.14
2023-03-11T11:18:30.327Z,963.13
2023-03-11T11:19:30.475Z,963.16
2023-03-11T11:20:30.272Z,963.13
2023-03-11T11:21:30.173Z,963.12
2023-03-11T11:22:30.220Z,963.11
2023-03-11T11:23:30.219Z,963.05
2023-03-11T11:24:30.368Z,963.12
2023-03-11T11:25:30.211Z,963.15
2023-03-11T11:26:30.278Z,963.16
2023-03-11T11:27:30.402Z,963.18
2023-03-11T11:28:30.166Z,963.21
2023-03-11T11:29:30.163Z,963.16
2023-03-11T11:30:30.241Z,963.18
2023-03-11T11:31:30.103Z,963.17
2023-03-11T11:32:30.239Z,963.18
2023-03-11T11:33:30.640Z,963.18
2023-03-11T11:34:30.192Z,963.19
2023-03-11T11:35:30.320Z,963.15
2023-03-11T11:36:33.794Z,963.16
2023-03-11T11:37:31.422Z,963.13
2023-03-11T11:38:30.139Z,963.18
2023-03-11T11:39:29.928Z,963.16
2023-03-11T11:40:30.050Z,963.18
2023-03-11T11:41:29.977Z,963.18
2023-03-11T11:42:30.207Z,963.16
2023-03-11T11:43:31.607Z,963.18
2023-03-11T11:44:29.924Z,963.17
2023-03-11T11:45:30.049Z,963.15
2023-03-11T11:46:29.920Z,963.12
2023-03-11T11:47:29.936Z,963.11
2023-03-11T11:48:29.966Z,963.16
2023-03-11T11:49:30.051Z,963.13
2023-03-11T11:50:30.152Z,963.12
2023-03-11T11:51:30.064Z,963.06
2023-03-11T11:52:29.902Z,963.05
2023-03-11T11:53:29.946Z,963.06
2023-03-11T11:54:29.734Z,963.01
2023-03-11T11:55:29.942Z,962.96
2023-03-11T11:56:29.999Z,962.96
2023-03-11T11:57:29.830Z,962.97
2023-03-11T11:58:29.776Z,962.96
2023-03-11T11:59:29.977Z,962.97
2023-03-11T12:00:29.897Z,962.94
2023-03-11T12:01:29.901Z,962.96
2023-03-11T12:02:29.810Z,962.89
2023-03-11T12:03:29.874Z,962.90
2023-03-11T12:04:29.713Z,962.87
2023-03-11T12:05:29.848Z,962.86
2023-03-11T12:06:30.980Z,962.92
2023-03-11T12:08:38.038Z,962.87
2023-03-11T12:09:39.076Z,962.83
2023-03-11T12:10:39.078Z,962.90
2023-03-11T12:11:41.533Z,962.88
2023-03-11T12:12:39.136Z,962.86
2023-03-11T12:13:40.142Z,962.82
2023-03-11T12:14:39.049Z,962.83
2023-03-11T12:15:39.076Z,962.80
2023-03-11T12:16:39.000Z,962.80
2023-03-11T12:17:38.989Z,962.82
2023-03-11T12:18:39.071Z,962.77
2023-03-11T12:19:38.876Z,962.77
2023-03-11T12:20:39.054Z,962.79
2023-03-11T12:21:39.012Z,962.73
2023-03-11T12:22:38.983Z,962.67
2023-03-11T12:23:39.015Z,962.68
2023-03-11T12:24:39.030Z,962.69
2023-03-11T12:25:39.001Z,962.66
2023-03-11T12:26:39.080Z,962.67
2023-03-11T12:27:39.107Z,962.64
2023-03-11T12:28:39.005Z,962.65
2023-03-11T12:29:38.938Z,962.62
2023-03-11T12:30:39.174Z,962.66
2023-03-11T12:31:39.035Z,962.64
2023-03-11T12:32:38.758Z,962.64
2023-03-11T12:33:38.799Z,962.66
2023-03-11T12:34:38.996Z,962.58
2023-03-11T12:35:38.858Z,962.59
2023-03-11T12:36:38.846Z,962.55
2023-03-11T12:37:38.947Z,962.57
2023-03-11T12:38:38.853Z,962.53
2023-03-11T12:39:38.873Z,962.52
2023-03-11T12:40:39.081Z,962.53
2023-03-11T12:41:38.848Z,962.52
2023-03-11T12:42:38.727Z,962.52
2023-03-11T12:43:38.712Z,962.49
2023-03-11T12:44:38.692Z,962.46
2023-03-11T12:45:38.745Z,962.52
2023-03-11T12:46:38.733Z,962.51
2023-03-11T12:47:38.630Z,962.51
2023-03-11T12:48:38.722Z,962.48
2023-03-11T12:49:38.730Z,962.55
2023-03-11T12:50:38.585Z,962.50
2023-03-11T12:51:38.582Z,962.54
2023-03-11T12:52:38.722Z,962.52
2023-03-11T12:53:38.520Z,962.54
2023-03-11T12:54:38.597Z,962.51
2023-03-11T12:55:38.778Z,962.54
2023-03-11T12:56:38.539Z,962.59
2023-03-11T12:57:39.399Z,962.53
2023-03-11T12:58:38.518Z,962.56
2023-03-11T12:59:38.537Z,962.54
2023-03-11T13:00:38.501Z,962.51
2023-03-11T13:01:38.548Z,962.56
2023-03-11T13:02:38.634Z,962.64
2023-03-11T13:03:38.470Z,962.55
2023-03-11T13:04:38.417Z,962.55
2023-03-11T13:05:38.435Z,962.52
2023-03-11T13:06:38.432Z,962.54
2023-03-11T13:07:38.440Z,962.56
2023-03-11T13:08:38.413Z,962.51
2023-03-11T13:09:38.709Z,962.51
2023-03-11T13:10:38.375Z,962.47
2023-03-11T13:11:38.345Z,962.44
2023-03-11T13:12:38.604Z,962.46
2023-03-11T13:13:38.384Z,962.44
2023-03-11T13:14:38.379Z,962.44
2023-03-11T13:15:38.318Z,962.44
2023-03-11T13:16:38.743Z,962.46
2023-03-11T13:17:38.403Z,962.45
2023-03-11T13:18:38.355Z,962.47
2023-03-11T13:19:38.275Z,962.46
2023-03-11T13:20:38.320Z,962.48
2023-03-11T13:21:38.353Z,962.47
2023-03-11T13:22:38.308Z,962.46
2023-03-11T13:23:38.402Z,962.48
2023-03-11T13:24:38.336Z,962.46
2023-03-11T13:25:38.289Z,962.51
2023-03-11T13:26:38.295Z,962.51
2023-03-11T13:27:38.202Z,962.55
2023-03-11T13:28:38.181Z,962.55
2023-03-11T13:29:38.224Z,962.55
2023-03-11T13:30:38.335Z,962.55
2023-03-11T13:31:38.433Z,962.54
2023-03-11T13:32:38.263Z,962.57
2023-03-11T13:33:38.234Z,962.57
2023-03-11T13:34:38.189Z,962.57
2023-03-11T13:35:38.229Z,962.60
2023-03-11T13:36:38.301Z,962.62
2023-03-11T13:37:38.194Z,962.58
2023-03-11T13:38:38.134Z,962.56
2023-03-11T13:39:37.981Z,962.64
2023-03-11T13:40:38.109Z,962.57
2023-03-11T13:41:38.087Z,962.58
2023-03-11T13:42:38.144Z,962.60
2023-03-11T13:43:38.042Z,962.58
2023-03-11T13:44:38.094Z,962.66
2023-03-11T13:45:38.192Z,962.70
2023-03-11T13:46:38.065Z,962.71
2023-03-11T13:47:38.108Z,962.72
2023-03-11T13:48:38.055Z,962.68
2023-03-11T13:49:38.074Z,962.69
2023-03-11T13:50:37.940Z,962.68
2023-03-11T13:51:38.060Z,962.69
2023-03-11T13:52:37.921Z,962.67
2023-03-11T13:53:38.049Z,962.68
2023-03-11T13:54:37.958Z,962.65
2023-03-11T13:55:37.929Z,962.65
2023-03-11T13:56:37.912Z,962.67
2023-03-11T13:57:37.988Z,962.66
2023-03-11T13:58:37.917Z,962.68
2023-03-11T13:59:37.904Z,962.69
2023-03-11T14:00:37.955Z,962.69
2023-03-11T14:01:37.893Z,962.67
2023-03-11T14:02:37.950Z,962.69
2023-03-11T14:03:37.863Z,962.74
2023-03-11T14:04:37.794Z,962.73
2023-03-11T14:05:37.876Z,962.74
2023-03-11T14:06:37.814Z,962.73
2023-03-11T14:07:37.885Z,962.73
2023-03-11T14:08:37.756Z,962.67
2023-03-11T14:09:37.767Z,962.66
2023-03-11T14:10:37.759Z,962.64
2023-03-11T14:11:37.767Z,962.64
2023-03-11T14:12:38.251Z,962.64
2023-03-11T14:13:37.847Z,962.65
2023-03-11T14:14:37.734Z,962.64
2023-03-11T14:15:37.703Z,962.64
2023-03-11T14:16:37.785Z,962.66
2023-03-11T14:17:37.744Z,962.63
2023-03-11T14:18:37.710Z,962.60
2023-03-11T14:19:37.697Z,962.61
2023-03-11T14:20:37.783Z,962.61
2023-03-11T14:21:37.605Z,962.55
2023-03-11T14:22:37.653Z,962.57
2023-03-11T14:23:37.531Z,962.53
2023-03-11T14:24:37.669Z,962.52
2023-03-11T14:25:37.632Z,962.50
2023-03-11T14:26:37.702Z,962.47
2023-03-11T14:27:37.645Z,962.48
2023-03-11T14:28:37.557Z,962.51
2023-03-11T14:29:37.716Z,962.56
2023-03-11T14:30:37.715Z,962.55
2023-03-11T14:31:37.921Z,962.58
2023-03-11T14:32:37.678Z,962.55
2023-03-11T14:33:37.662Z,962.57
2023-03-11T14:34:37.531Z,962.57
2023-03-11T14:35:39.752Z,962.57
2023-03-11T14:36:37.552Z,962.51
2023-03-11T14:37:37.581Z,962.50
2023-03-11T14:38:37.460Z,962.46
2023-03-11T14:39:37.420Z,962.50
2023-03-11T14:40:37.502Z,962.52
2023-03-11T14:41:37.514Z,962.52
2023-03-11T14:42:37.442Z,962.53
2023-03-11T14:43:37.397Z,962.57
2023-03-11T14:44:37.387Z,962.58
2023-03-11T14:45:37.495Z,962.56
2023-03-11T14:46:37.404Z,962.56
2023-03-11T14:47:37.461Z,962.55
2023-03-11T14:48:37.370Z,962.57
2023-03-11T14:49:37.336Z,962.59
2023-03-11T14:50:37.409Z,962.54
2023-03-11T14:51:37.384Z,962.54
2023-03-11T14:52:37.390Z,962.55
2023-03-11T14:53:37.296Z,962.56
2023-03-11T14:54:37.371Z,962.57
2023-03-11T14:55:37.303Z,962.55
2023-03-11T14:56:37.271Z,962.52
2023-03-11T14:57:37.264Z,962.56
2023-03-11T14:58:37.307Z,962.62
2023-03-11T14:59:37.204Z,962.67
2023-03-11T15:00:37.323Z,962.60
2023-03-11T15:01:37.432Z,962.59
2023-03-11T15:02:37.266Z,962.60
2023-03-11T15:03:37.425Z,962.64
2023-03-11T15:04:37.246Z,962.62
2023-03-11T15:05:37.179Z,962.60
2023-03-11T15:06:37.198Z,962.65
2023-03-11T15:07:37.159Z,962.67
2023-03-11T15:08:37.484Z,962.67
2023-03-11T15:09:37.163Z,962.70
2023-03-11T15:10:37.243Z,962.70
2023-03-11T15:11:37.128Z,962.69
2023-03-11T15:12:37.037Z,962.71
2023-03-11T15:13:37.199Z,962.77
2023-03-11T15:14:37.111Z,962.79
2023-03-11T15:15:37.564Z,962.72
2023-03-11T15:16:37.190Z,962.77
